• Join FlightAware (Why Join?)
  • Login
  • US Flag 
04:47PM EDT


 

Airport Tracker/Info


-or-


 

Live Flight TrackerFlight Track Log ✈ FSR411 ✈ 18-Mar-2014 ✈ KCMI - KGMU

Flight Track Log - Related Links

Times and Time Zones

All times are in EDT time to prevent confusion due to time zone crossing. See the FSR411 flight status page for this flight to view local times or setup timezone preferences in your user account.

Time Position Orientation Groundspeed Altitude Reporting Facility
EDT Latitude Longitude Course Direction KTS MPH feet Rate Location/Type
08:25PM 40.0128 -88.2322 131° Southeast 159 183 41,000  Level Indianapolis Center
08:26PM 39.9747 -88.1842 136° Southeast 190 219 41,000 -15,780 Level Indianapolis Center
08:27PM 39.9356 -88.1242 130° Southeast 255 293 8,700 -14,580 Descending Indianapolis Center
08:28PM 39.8844 -88.0428 129° Southeast 272 313 11,200 2,520 Climbing Indianapolis Center
08:29PM 39.8200 -87.9483 132° Southeast 312 359 13,900 3,540 Climbing Indianapolis Center
08:30PM 39.6725 -87.7421 131° Southeast  Level FlightAware Approximate
08:30PM 39.7294 -87.8186 132° Southeast 382 440 18,500  Level Indianapolis Center
08:31PM 39.6550 -87.7117 132° Southeast 397 457 22,100 2,940 Climbing Indianapolis Center
08:32PM 39.5800 -87.6014 131° Southeast 405 466 24,600 2,220 Climbing Indianapolis Center
08:33PM 39.5000 -87.4864 132° Southeast 422 486 26,700 1,980 Climbing Indianapolis Center
08:34PM 39.4172 -87.3678 132° Southeast 439 505 28,700 1,860 Climbing Indianapolis Center
08:35PM 39.3322 -87.2461 132° Southeast 452 520 30,600 1,800 Climbing Indianapolis Center
08:36PM 39.2472 -87.1239 132° Southeast 457 526 32,500 2,040 Climbing Indianapolis Center
08:37PM 39.1456 -86.9786 132° Southeast 457 526 34,800 1,920 Climbing Indianapolis Center
08:38PM 39.0706 -86.8714 132° Southeast 455 524 36,500 1,560 Climbing Indianapolis Center
08:39PM 38.9872 -86.7547 133° Southeast 446 513 38,100 1,320 Climbing Indianapolis Center
08:40PM 38.9064 -86.6406 132° Southeast 435 501 39,300 960 Climbing Indianapolis Center
08:41PM 38.8242 -86.5261 133° Southeast 434 499 40,100 540 Climbing Indianapolis Center
08:42PM 38.7411 -86.4092 132° Southeast 434 499 40,500 420 Climbing Indianapolis Center
08:43PM 38.6553 -86.2900 133° Southeast 445 512 41,000 240 Climbing Indianapolis Center
08:44PM 38.5669 -86.1678 133° Southeast 455 524 41,000  Level Indianapolis Center
08:45PM 38.4556 -86.0142 133° Southeast 472 543 41,000  Level Indianapolis Center
08:46PM 38.3594 -85.8817 133° Southeast 495 570 41,000  Level Indianapolis Center
08:47PM 38.2636 -85.7497 133° Southeast 501 577 41,000  Level Indianapolis Center
08:48PM 38.1669 -85.6181 133° Southeast 501 577 41,000  Level Indianapolis Center
08:49PM 38.0683 -85.4839 133° Southeast 509 586 41,000  Level Indianapolis Center
08:50PM 37.9697 -85.3497 133° Southeast 514 592 41,000  Level Indianapolis Center
08:51PM 37.8711 -85.2161 133° Southeast 515 593 41,000  Level Indianapolis Center
08:52PM 37.7686 -85.0806 134° Southeast 519 597 41,000 -480 Level Indianapolis Center
08:53PM 37.6686 -84.9483 134° Southeast 519 597 40,100 -960 Descending Indianapolis Center
08:54PM 37.5717 -84.8181 133° Southeast 513 590 39,100 -1,020 Descending Indianapolis Center
08:56PM 37.4756 -84.6931 134° Southeast 502 578 38,100 -1,020 Descending Indianapolis Center
08:57PM 37.3817 -84.5667 133° Southeast 498 573 37,100 -1,080 Descending Indianapolis Center
08:58PM 37.2697 -84.4194 134° Southeast 498 573 36,000 -1,080 Descending Indianapolis Center
08:59PM 37.1717 -84.2914 134° Southeast 502 578 35,000 -1,020 Descending Indianapolis Center
09:00PM 37.0728 -84.1611 134° Southeast 512 589 34,000 -1,020 Descending Indianapolis Center
09:01PM 36.9728 -84.0275 133° Southeast 521 600 33,000 -1,380 Descending Indianapolis Center
09:02PM 36.8750 -83.8894 131° Southeast 526 605 31,300 -1,860 Descending Indianapolis Center
09:03PM 36.7769 -83.7533 132° Southeast 526 605 29,300 -1,800 Descending Indianapolis Center
09:04PM 36.6811 -83.6208 132° Southeast 524 603 27,700 -1,380 Descending Indianapolis Center
09:05PM 36.5850 -83.4892 132° Southeast 521 600 26,500 -1,320 Descending Indianapolis Center
09:06PM 36.4736 -83.3361 132° Southeast 518 596 25,100 -1,320 Descending Indianapolis Center
09:07PM 36.3806 -83.2092 132° Southeast 507 583 23,900 -1,200 Descending Indianapolis Center
09:07PM 36.3261 -83.1419 135° Southeast 512 589 23,300 -600 Descending Atlanta Center
09:08PM 36.2375 -83.0194 132° Southeast 495 570 23,000 -300 Descending Atlanta Center
09:09PM 36.1469 -82.8969 132° Southeast 487 560 22,700 -660 Descending Atlanta Center
09:10PM 36.0603 -82.7803 133° Southeast 476 548 21,700 -1,020 Descending Atlanta Center
09:11PM 35.9631 -82.6764 139° Southeast 462 532 20,700 -1,020 Descending Atlanta Center
09:12PM 35.8558 -82.6014 150° Southeast 457 526 19,700 -1,560 Descending Atlanta Center
09:13PM 35.7547 -82.5264 149° Southeast 436 502 17,600 -2,040 Descending Atlanta Center
09:14PM 35.6622 -82.4617 150° Southeast 431 496 15,700 -2,100 Descending Atlanta Center
09:15PM 35.5653 -82.3869 148° Southeast 419 482 13,500 -2,220 Descending Atlanta Center
09:16PM 35.4725 -82.3200 150° Southeast 406 467 11,300 -1,500 Descending Atlanta Center
09:17PM 35.3925 -82.2681 152° Southeast 367 422 10,500 -900 Descending Atlanta Center
09:18PM 35.3172 -82.2622 176° South 305 351 9,500 -1,020 Descending Atlanta Center
09:19PM 35.2422 -82.2586 178° South 285 328 8,500 -900 Descending Atlanta Center
09:20PM 35.1669 -82.2450 172° South 280 322 7,700 -780 Descending Atlanta Center
09:21PM 35.0917 -82.2364 175° South 274 315 7,000 -720 Descending Atlanta Center
09:22PM 35.0225 -82.2253 173° South 269 310 6,300 -540 Descending Atlanta Center
09:23PM 34.9536 -82.2142 172° South 263 303 6,000 -180 Descending Atlanta Center
09:24PM 34.8742 -82.2033 174° South 263 303 6,000 -300 Level Atlanta Center
09:25PM 34.8053 -82.2022 179° South 257 296 5,500 -1,500 Descending Atlanta Center
09:26PM 34.7389 -82.2289 198° South 251 289 3,100 -1,260 Descending Atlanta Center
09:27PM 34.6808 -82.2503 197° South 245 282 3,000 -60 Descending Atlanta Center
09:28PM 34.6503 -82.3017 234° Southwest 196 226 3,000  Level Atlanta Center
09:29PM 34.6822 -82.3464 311° West 144 166 3,000  Level Atlanta Center
09:30PM 34.7281 -82.3581 348° North 127 146 3,000 -180 Level Atlanta Center
09:31PM 34.7572 -82.3550 North 127 146 2,700 7,980 Descending Atlanta Center
09:32PM 34.7892 -82.3872 320° Northwest 127 146 19,000 16,260 Climbing Atlanta Center
09:34PM 34.8333 -82.3500 North  Level FlightAware Approximate
09:41PM 34.8479 -82.3500 North  Level Estimated
09:42PM 34.8479 -82.3500 111° Southeast  Level Estimated
09:43PM 34.8479 -82.3500 236° Southwest  Level Estimated
09:44PM 34.8479 -82.3500 North  Level Estimated
09:45PM 34.8479 -82.3500 North  Level Estimated
09:46PM 34.8479 -82.3500 111° Southeast  Level Estimated
09:47PM 34.8479 -82.3500 236° Southwest  Level Estimated
09:48PM 34.8479 -82.3500 North  Level Estimated
09:49PM 34.8479 -82.3500 North  Level Estimated